Time;durP1;ratioP1;P1;durP2;ratioP2;P2;SDS_P1;SDS_P2;PMS_P1;PMS_P2;Temp;Humidity;BMP_temperature;BMP_pressure;BME280_temperature;BME280_humidity;BME280_pressure;Samples;Min_cycle;Max_cycle;Signal;HPM_P1;HPM_P2
2024/02/03 00:04:30;;;;;;;5.97;2.90;;;;;;;7.69;61.47;101090.13;10325967;28;20062;-81
2024/02/03 00:09:32;;;;;;;6.25;3.25;;;;;;;7.64;61.75;101093.78;10323339;28;20049;-81
2024/02/03 00:14:35;;;;;;;5.30;3.13;;;;;;;7.70;61.60;101085.78;10322301;28;20058;-80
2024/02/03 00:19:40;;;;;;;4.85;2.67;;;;;;;7.77;61.46;101080.34;10309175;28;20093;-81
2024/02/03 00:24:42;;;;;;;5.13;2.92;;;;;;;7.79;61.34;101083.75;10325343;28;20046;-81
2024/02/03 00:29:44;;;;;;;6.22;2.85;;;;;;;7.72;61.56;101083.97;10325209;28;20141;-81
2024/02/03 00:34:47;;;;;;;5.20;3.03;;;;;;;7.73;61.56;101086.53;10311311;28;20506;-81
2024/02/03 00:39:49;;;;;;;6.13;3.40;;;;;;;7.61;61.89;101091.28;10338028;28;20424;-81
2024/02/03 00:44:51;;;;;;;6.97;3.20;;;;;;;7.70;61.82;101094.44;10310461;28;20093;-81
2024/02/03 00:49:53;;;;;;;7.10;3.30;;;;;;;7.51;62.41;101089.84;10326193;28;20050;-81
2024/02/03 00:54:55;;;;;;;6.30;3.38;;;;;;;7.42;62.82;101087.47;10293676;28;20045;-81
2024/02/03 00:59:57;;;;;;;5.80;2.63;;;;;;;7.46;62.65;101078.69;10341494;28;20058;-81
2024/02/03 01:04:59;;;;;;;6.82;3.55;;;;;;;7.52;62.69;101068.97;10322604;28;20136;-81
2024/02/03 01:10:02;;;;;;;7.85;3.50;;;;;;;7.53;62.62;101070.66;10323868;28;20495;-82
2024/02/03 01:15:04;;;;;;;5.95;2.92;;;;;;;7.57;62.35;101077.47;10324734;28;20822;-81
2024/02/03 01:20:07;;;;;;;5.68;2.60;;;;;;;7.53;62.60;101080.25;10308313;28;20504;-81
2024/02/03 01:25:10;;;;;;;5.15;2.97;;;;;;;7.53;62.72;101075.03;10331794;28;20046;-81
2024/02/03 01:30:12;;;;;;;6.20;3.20;;;;;;;7.49;62.99;101089.03;10305485;28;20841;-81
2024/02/03 01:35:15;;;;;;;6.50;3.30;;;;;;;7.53;62.94;101086.28;10309266;28;20046;-81
2024/02/03 01:40:17;;;;;;;6.60;3.00;;;;;;;7.48;62.99;101076.91;10322263;28;20129;-81
2024/02/03 01:45:19;;;;;;;7.38;3.70;;;;;;;7.45;63.48;101084.81;10325498;28;20055;-81
2024/02/03 01:50:25;;;;;;;7.35;3.00;;;;;;;7.48;63.16;101067.34;10327427;28;20065;-81
2024/02/03 01:55:27;;;;;;;5.75;2.70;;;;;;;7.45;63.32;101064.00;10332458;28;20400;-81
2024/02/03 02:00:30;;;;;;;5.68;3.22;;;;;;;7.47;63.42;101068.22;10330402;28;20113;-81
2024/02/03 02:05:33;;;;;;;6.20;2.78;;;;;;;7.50;63.14;101069.91;10315552;28;20062;-80
2024/02/03 02:10:35;;;;;;;5.40;2.92;;;;;;;7.41;63.96;101067.53;10337425;28;20133;-81
2024/02/03 02:15:37;;;;;;;7.18;3.00;;;;;;;7.41;63.79;101073.59;10312138;28;20047;-80
2024/02/03 02:20:39;;;;;;;4.80;2.67;;;;;;;7.47;63.50;101076.03;10328973;28;20081;-82
2024/02/03 02:25:42;;;;;;;5.05;2.13;;;;;;;7.58;63.20;101076.59;10328514;28;20053;-81
2024/02/03 02:30:44;;;;;;;5.43;3.00;;;;;;;7.64;63.31;101068.59;10314405;28;20057;-82
2024/02/03 02:35:49;;;;;;;4.45;2.17;;;;;;;7.56;63.28;101075.78;10336047;28;20475;-82
2024/02/03 02:40:51;;;;;;;7.88;2.72;;;;;;;7.56;63.30;101072.31;10322641;28;20062;-82
2024/02/03 02:45:56;;;;;;;5.07;2.47;;;;;;;7.52;63.66;101063.75;10329284;28;20062;-82
2024/02/03 02:50:58;;;;;;;4.88;2.70;;;;;;;7.63;63.45;101059.06;10326353;28;20134;-82
2024/02/03 02:56:00;;;;;;;4.82;2.10;;;;;;;7.59;63.77;101062.66;10344858;28;20112;-82
2024/02/03 03:01:03;;;;;;;4.28;2.30;;;;;;;7.65;63.63;101056.44;10311730;28;20050;-82
2024/02/03 03:06:06;;;;;;;5.32;2.33;;;;;;;7.70;63.45;101052.78;10343247;28;20049;-82
2024/02/03 03:11:10;;;;;;;3.58;1.98;;;;;;;7.63;63.73;101056.47;10326274;28;20050;-82
2024/02/03 03:16:12;;;;;;;5.03;2.55;;;;;;;7.41;64.51;101051.94;10325997;28;20058;-82
2024/02/03 03:21:14;;;;;;;5.07;2.47;;;;;;;7.49;64.23;101050.81;10310683;28;20108;-82
2024/02/03 03:26:16;;;;;;;4.78;2.08;;;;;;;7.37;65.25;101063.31;10311150;28;20058;-81
2024/02/03 03:31:18;;;;;;;4.55;2.10;;;;;;;7.34;65.42;101048.69;10326692;28;20499;-82
2024/02/03 03:36:21;;;;;;;3.85;1.90;;;;;;;7.28;65.87;101051.47;10325963;28;20482;-81
2024/02/03 03:41:23;;;;;;;4.22;2.10;;;;;;;7.28;65.75;101050.59;10310933;28;20054;-82
2024/02/03 03:46:25;;;;;;;4.80;2.05;;;;;;;7.27;65.91;101048.88;10343228;28;20754;-81
2024/02/03 03:51:27;;;;;;;3.78;2.15;;;;;;;7.22;66.32;101051.63;10325527;28;20658;-82
2024/02/03 03:56:29;;;;;;;5.22;2.28;;;;;;;7.18;65.99;101047.41;10314053;28;20061;-82
2024/02/03 04:01:31;;;;;;;4.38;2.08;;;;;;;7.19;66.02;101041.28;10310379;28;20467;-82
2024/02/03 04:06:34;;;;;;;4.85;2.08;;;;;;;7.16;66.41;101036.19;10321858;28;20046;-82
2024/02/03 04:11:38;;;;;;;3.50;1.90;;;;;;;7.15;66.22;101035.34;10314459;28;20461;-82
2024/02/03 04:16:41;;;;;;;3.83;1.95;;;;;;;7.07;67.14;101047.69;10322347;28;20078;-82
2024/02/03 04:21:43;;;;;;;3.00;1.63;;;;;;;7.16;66.42;101038.78;10323883;28;20090;-82
2024/02/03 04:26:45;;;;;;;4.45;1.98;;;;;;;7.23;66.31;101032.50;10280739;28;20046;-82
2024/02/03 04:31:47;;;;;;;3.50;1.90;;;;;;;7.21;66.43;101023.91;10323107;28;20084;-82
2024/02/03 04:36:49;;;;;;;2.97;1.55;;;;;;;7.13;66.71;101007.66;10318663;28;20460;-81
2024/02/03 04:41:51;;;;;;;3.53;1.85;;;;;;;7.20;66.46;101011.78;10305677;28;20054;-82
2024/02/03 04:46:53;;;;;;;2.50;1.75;;;;;;;7.08;67.15;101004.34;10296943;28;20070;-82
2024/02/03 04:51:55;;;;;;;3.38;1.63;;;;;;;7.08;67.17;101001.75;10313377;28;20070;-82
2024/02/03 04:56:57;;;;;;;3.38;1.50;;;;;;;7.13;66.88;101005.06;10310501;28;20076;-82
2024/02/03 05:02:00;;;;;;;2.70;1.20;;;;;;;7.16;66.82;101004.97;10296856;28;20062;-82
2024/02/03 05:07:02;;;;;;;2.03;1.08;;;;;;;7.22;66.46;101012.59;10312224;28;20058;-82
2024/02/03 05:12:05;;;;;;;1.55;1.20;;;;;;;7.22;66.75;101012.59;10311617;28;20385;-82
2024/02/03 05:17:08;;;;;;;1.65;1.08;;;;;;;7.24;66.69;101013.41;10318683;28;20475;-80
2024/02/03 05:22:10;;;;;;;3.15;1.27;;;;;;;7.19;66.93;101000.53;10322358;28;20133;-82
2024/02/03 05:27:12;;;;;;;1.35;1.00;;;;;;;7.26;66.69;101006.41;10330356;28;20047;-82
2024/02/03 05:32:14;;;;;;;2.50;1.10;;;;;;;7.31;66.43;100994.09;10319589;28;20049;-83
2024/02/03 05:37:16;;;;;;;1.95;1.00;;;;;;;7.34;66.51;100999.22;10321239;28;20065;-82
2024/02/03 05:42:18;;;;;;;1.17;0.88;;;;;;;7.36;66.60;100999.19;10329768;28;20085;-82
2024/02/03 05:47:25;;;;;;;0.80;0.77;;;;;;;7.39;66.55;100989.53;10317987;28;20529;-82
2024/02/03 05:52:27;;;;;;;1.50;1.00;;;;;;;7.44;66.71;100990.25;10318677;28;20061;-82
2024/02/03 05:57:29;;;;;;;1.35;0.95;;;;;;;7.50;66.34;100995.28;10319741;28;20125;-83
2024/02/03 06:02:47;;;;;;;2.17;0.90;;;;;;;7.52;66.34;100993.47;10307526;28;20061;-81
2024/02/03 06:07:56;;;;;;;0.75;0.65;;;;;;;7.56;66.37;100994.22;10289229;28;20104;-82
2024/02/03 06:12:59;;;;;;;0.93;0.73;;;;;;;7.49;66.91;100997.94;10327804;28;20579;-81
2024/02/03 06:18:01;;;;;;;0.47;0.47;;;;;;;7.56;66.65;100991.63;10306502;28;20070;-82
2024/02/03 06:23:04;;;;;;;0.95;0.70;;;;;;;7.46;66.79;100985.84;10322660;28;20057;-82
2024/02/03 06:28:07;;;;;;;0.63;0.52;;;;;;;7.58;66.34;100987.22;10333762;28;20078;-81
2024/02/03 06:33:10;;;;;;;2.25;0.47;;;;;;;7.62;66.68;100989.69;10337376;28;20100;-81
2024/02/03 06:38:13;;;;;;;0.65;0.60;;;;;;;7.55;66.93;100982.13;10333014;28;20110;-82
2024/02/03 06:43:15;;;;;;;0.40;0.40;;;;;;;7.56;66.87;100992.47;10327249;28;20058;-82
2024/02/03 06:48:16;;;;;;;0.43;0.43;;;;;;;7.47;67.44;100984.94;10306893;28;20145;-82
2024/02/03 06:53:19;;;;;;;1.05;0.70;;;;;;;7.52;67.23;100972.66;10336714;28;20062;-81
2024/02/03 06:58:21;;;;;;;0.52;0.50;;;;;;;7.53;67.35;100973.50;10309057;28;20069;-82
2024/02/03 07:03:23;;;;;;;0.52;0.52;;;;;;;7.60;66.90;100975.88;10324948;28;20066;-80
2024/02/03 07:08:25;;;;;;;0.77;0.60;;;;;;;7.74;66.67;100981.50;10288458;28;20056;-82
2024/02/03 07:13:27;;;;;;;0.60;0.60;;;;;;;7.59;67.21;100968.13;10307576;28;20050;-82
2024/02/03 07:18:30;;;;;;;0.60;0.60;;;;;;;7.64;67.10;100969.66;10308390;28;20066;-80
2024/02/03 07:23:32;;;;;;;1.42;0.63;;;;;;;7.71;66.88;100970.34;10316173;28;20058;-81
2024/02/03 07:28:34;;;;;;;0.55;0.47;;;;;;;7.77;66.75;100968.34;10331353;28;20108;-82
2024/02/03 07:33:36;;;;;;;0.45;0.45;;;;;;;7.89;66.35;100965.41;10315675;28;21092;-81
2024/02/03 07:38:38;;;;;;;0.60;0.57;;;;;;;7.91;66.46;100970.53;10314569;28;20062;-81
2024/02/03 07:43:40;;;;;;;0.60;0.60;;;;;;;7.94;66.35;100979.09;10313474;28;20062;-81
2024/02/03 07:48:42;;;;;;;0.40;0.40;;;;;;;7.99;66.17;100982.44;10314776;28;20367;-81
2024/02/03 07:53:44;;;;;;;0.60;0.50;;;;;;;7.98;66.17;100970.28;10313311;28;20058;-81
2024/02/03 07:58:46;;;;;;;0.75;0.75;;;;;;;8.13;66.13;100968.09;10339217;28;20241;-81
2024/02/03 08:03:49;;;;;;;0.95;0.60;;;;;;;8.31;65.35;100968.34;10324100;28;20500;-82
2024/02/03 08:08:51;;;;;;;0.50;0.50;;;;;;;8.36;65.04;100957.78;10320904;28;20079;-82
2024/02/03 08:13:53;;;;;;;0.90;0.52;;;;;;;8.32;65.33;100972.66;10324041;28;20060;-82
2024/02/03 08:18:55;;;;;;;0.50;0.50;;;;;;;8.43;65.02;100961.84;10324908;28;20065;-83
2024/02/03 08:24:00;;;;;;;0.90;0.68;;;;;;;8.47;64.74;100950.41;10326493;28;20050;-83
2024/02/03 08:29:08;;;;;;;2.72;0.80;;;;;;;8.75;64.37;100946.78;10299232;28;20050;-82
2024/02/03 08:34:10;;;;;;;0.60;0.60;;;;;;;8.91;64.17;100936.66;10342831;28;20065;-83
2024/02/03 08:39:18;;;;;;;0.63;0.60;;;;;;;9.01;63.62;100945.84;10327119;28;20619;-83
2024/02/03 08:44:23;;;;;;;0.45;0.45;;;;;;;8.90;63.91;100940.16;10326469;28;20459;-82
2024/02/03 08:49:28;;;;;;;0.45;0.45;;;;;;;8.97;63.52;100936.41;10339736;28;20054;-82
2024/02/03 08:54:31;;;;;;;0.73;0.52;;;;;;;8.91;63.58;100952.31;10317943;28;20726;-83
2024/02/03 08:59:33;;;;;;;0.50;0.50;;;;;;;9.14;63.02;100943.59;10307913;28;20527;-79
2024/02/03 09:04:40;;;;;;;0.50;0.50;;;;;;;9.54;62.28;100938.56;10305191;28;20046;-78
2024/02/03 09:09:44;;;;;;;0.40;0.40;;;;;;;9.30;61.95;100932.50;10298706;28;20076;-79
2024/02/03 09:14:46;;;;;;;0.63;0.45;;;;;;;9.13;62.29;100950.59;10303864;28;20055;-78
2024/02/03 09:19:48;;;;;;;0.63;0.60;;;;;;;9.62;62.16;100949.53;10298604;28;20054;-78
2024/02/03 09:24:51;;;;;;;0.68;0.60;;;;;;;9.76;61.14;100967.31;10302360;28;20128;-79
2024/02/03 09:29:53;;;;;;;0.70;0.60;;;;;;;10.19;60.88;100959.41;10292118;28;20396;-79
2024/02/03 09:34:55;;;;;;;0.93;0.77;;;;;;;10.46;60.40;100963.50;10307666;28;20120;-78
2024/02/03 09:39:57;;;;;;;0.60;0.60;;;;;;;10.42;60.35;100967.97;10306702;28;20058;-79
2024/02/03 09:45:00;;;;;;;1.45;0.75;;;;;;;10.30;60.40;100965.03;10308755;28;20047;-79
2024/02/03 09:50:04;;;;;;;0.57;0.47;;;;;;;10.47;60.17;100952.97;10305671;28;20062;-79
2024/02/03 09:55:07;;;;;;;0.60;0.60;;;;;;;10.45;60.02;100960.03;10321938;28;20050;-78
2024/02/03 10:00:11;;;;;;;0.47;0.47;;;;;;;10.79;59.42;100962.00;10335836;28;20115;-79
2024/02/03 10:05:13;;;;;;;0.63;0.60;;;;;;;10.62;59.61;100959.28;10313545;28;20042;-79
2024/02/03 10:10:16;;;;;;;0.75;0.60;;;;;;;10.46;59.65;100969.53;10343017;28;20054;-78
2024/02/03 10:15:21;;;;;;;0.30;0.30;;;;;;;10.66;59.26;100988.78;10323270;28;20169;-79
2024/02/03 10:20:25;;;;;;;0.57;0.52;;;;;;;10.01;60.26;100988.94;10343790;28;20452;-79
2024/02/03 10:25:31;;;;;;;0.40;0.40;;;;;;;10.33;60.01;100985.84;10337426;28;20054;-79
2024/02/03 10:30:37;;;;;;;0.80;0.65;;;;;;;10.38;59.69;100989.09;10325220;28;20085;-79
2024/02/03 10:35:41;;;;;;;0.40;0.40;;;;;;;10.43;59.93;100993.22;10324633;28;20202;-79
2024/02/03 10:40:44;;;;;;;0.40;0.40;;;;;;;10.44;59.69;100991.44;10342364;28;20230;-79
2024/02/03 10:45:56;;;;;;;0.50;0.50;;;;;;;10.27;59.60;100993.94;10349989;28;20899;-80
2024/02/03 10:51:03;;;;;;;0.50;0.50;;;;;;;10.28;59.83;100987.78;10341185;28;20618;-79
2024/02/03 10:56:08;;;;;;;0.35;0.32;;;;;;;10.66;58.48;100981.78;10325713;28;20050;-79
2024/02/03 11:01:17;;;;;;;0.40;0.40;;;;;;;10.81;58.31;100980.25;10293970;28;20066;-79
2024/02/03 11:06:27;;;;;;;0.32;0.32;;;;;;;11.12;58.27;100978.84;10313555;28;20412;-79
2024/02/03 11:11:29;;;;;;;0.73;0.60;;;;;;;11.32;57.72;100983.16;10324002;28;20057;-79
2024/02/03 11:16:38;;;;;;;0.43;0.43;;;;;;;11.36;56.78;100982.09;10311650;28;20050;-79
2024/02/03 11:21:43;;;;;;;0.70;0.68;;;;;;;11.67;57.30;100969.28;10321570;28;20109;-77
2024/02/03 11:27:03;;;;;;;1.00;0.63;;;;;;;11.49;57.27;100975.38;10320305;28;20096;-77
2024/02/03 11:32:07;;;;;;;0.47;0.45;;;;;;;11.39;57.50;100963.66;10308829;28;20074;-77
2024/02/03 11:37:13;;;;;;;0.30;0.30;;;;;;;11.50;57.20;100939.56;10318854;28;20046;-78
2024/02/03 11:42:16;;;;;;;2.58;0.50;;;;;;;11.53;56.97;100939.41;10309759;28;20042;-77
2024/02/03 11:47:20;;;;;;;0.90;0.50;;;;;;;11.53;57.00;100936.78;10308525;28;20574;-79
2024/02/03 11:52:23;;;;;;;0.63;0.63;;;;;;;11.38;56.68;100934.91;10306820;28;20054;-77
2024/02/03 11:57:27;;;;;;;2.75;0.60;;;;;;;11.27;57.07;100927.56;10318503;28;20048;-79
2024/02/03 12:02:31;;;;;;;1.60;0.60;;;;;;;11.11;57.96;100924.78;10276466;28;20065;-79
2024/02/03 12:07:34;;;;;;;0.38;0.38;;;;;;;11.24;57.71;100928.53;10323817;28;20057;-77
2024/02/03 12:12:36;;;;;;;1.42;0.55;;;;;;;11.39;57.32;100928.75;10306986;28;20133;-77
2024/02/03 12:17:39;;;;;;;0.40;0.40;;;;;;;10.87;58.49;100925.00;10293939;28;20046;-78
2024/02/03 12:22:42;;;;;;;0.80;0.63;;;;;;;10.81;58.70;100917.44;10280075;28;20161;-77
2024/02/03 12:27:44;;;;;;;0.30;0.30;;;;;;;10.96;58.45;100919.38;10311300;28;20093;-77
2024/02/03 12:32:47;;;;;;;0.85;0.38;;;;;;;10.80;58.83;100915.75;10309699;28;20086;-78
2024/02/03 12:37:51;;;;;;;0.50;0.50;;;;;;;11.04;58.64;100910.28;10304736;28;21109;-78
2024/02/03 12:42:53;;;;;;;0.60;0.60;;;;;;;11.06;58.54;100918.94;10317559;28;20065;-78
2024/02/03 12:47:55;;;;;;;0.45;0.40;;;;;;;11.03;58.58;100900.69;10314517;28;20186;-78
2024/02/03 12:52:58;;;;;;;0.57;0.57;;;;;;;11.04;58.59;100897.22;10310680;28;20510;-78
2024/02/03 12:58:01;;;;;;;0.45;0.45;;;;;;;10.93;58.62;100904.66;10317260;28;20058;-78
2024/02/03 13:03:04;;;;;;;0.65;0.55;;;;;;;11.06;58.60;100889.28;10306227;28;20050;-78
2024/02/03 13:08:08;;;;;;;0.50;0.50;;;;;;;11.18;58.30;100880.84;10315960;28;20130;-78
2024/02/03 13:13:12;;;;;;;1.23;0.55;;;;;;;11.18;58.04;100881.69;10309272;28;20157;-75
2024/02/03 13:18:14;;;;;;;1.15;0.82;;;;;;;11.29;58.00;100887.25;10312003;28;20049;-76
2024/02/03 13:23:16;;;;;;;0.63;0.60;;;;;;;11.09;57.97;100878.66;10311844;28;20054;-76
2024/02/03 13:28:18;;;;;;;1.67;0.95;;;;;;;11.21;58.07;100875.47;10304817;28;20109;-76
2024/02/03 13:33:20;;;;;;;1.08;1.00;;;;;;;11.13;57.92;100873.19;10298609;28;20069;-74
2024/02/03 13:38:23;;;;;;;1.10;0.60;;;;;;;11.21;57.83;100863.22;10308098;28;20046;-74
2024/02/03 13:43:25;;;;;;;0.77;0.60;;;;;;;11.31;58.01;100868.88;10304121;28;20109;-75
2024/02/03 13:48:27;;;;;;;0.88;0.70;;;;;;;11.30;57.81;100872.41;10307308;28;20053;-75
2024/02/03 13:53:30;;;;;;;0.80;0.68;;;;;;;11.22;58.12;100859.69;10288123;28;20042;-75
2024/02/03 13:58:33;;;;;;;0.60;0.45;;;;;;;11.11;58.36;100841.00;10279775;28;20051;-75
2024/02/03 14:03:35;;;;;;;0.98;0.57;;;;;;;11.30;58.14;100823.50;10319061;28;20145;-75
2024/02/03 14:08:38;;;;;;;0.57;0.50;;;;;;;11.32;58.05;100840.94;10309696;28;20050;-75
2024/02/03 14:13:43;;;;;;;2.10;0.65;;;;;;;11.36;57.87;100837.25;10296179;28;20092;-75
2024/02/03 14:18:45;;;;;;;0.85;0.80;;;;;;;11.08;58.23;100850.78;10296873;28;20136;-76
2024/02/03 14:23:48;;;;;;;0.30;0.30;;;;;;;10.90;58.61;100849.84;10291286;28;20113;-76
2024/02/03 14:28:50;;;;;;;0.45;0.45;;;;;;;10.66;59.39;100856.22;10303840;28;20050;-77
2024/02/03 14:33:52;;;;;;;0.40;0.40;;;;;;;10.64;59.43;100851.97;10305204;28;20538;-76
2024/02/03 14:38:54;;;;;;;0.40;0.40;;;;;;;10.64;59.52;100850.22;10312576;28;20058;-76
2024/02/03 14:43:56;;;;;;;1.77;0.60;;;;;;;10.75;59.25;100847.94;10300017;28;20688;-76
2024/02/03 14:48:58;;;;;;;0.50;0.50;;;;;;;10.65;59.42;100837.94;10319239;28;20055;-76
2024/02/03 14:54:01;;;;;;;0.28;0.28;;;;;;;10.56;59.66;100820.06;10321537;28;20556;-76
2024/02/03 14:59:03;;;;;;;0.95;0.80;;;;;;;10.63;59.62;100830.19;10294376;28;20050;-76
2024/02/03 15:04:07;;;;;;;0.47;0.40;;;;;;;10.54;59.88;100825.38;10310494;28;20086;-75
2024/02/03 15:09:11;;;;;;;0.40;0.40;;;;;;;10.56;59.89;100815.69;10303408;28;20069;-75
2024/02/03 15:14:13;;;;;;;0.50;0.50;;;;;;;10.58;59.83;100821.72;10325953;28;20060;-76
2024/02/03 15:19:15;;;;;;;0.63;0.47;;;;;;;10.61;59.91;100816.31;10343893;28;20105;-75
2024/02/03 15:24:18;;;;;;;0.45;0.45;;;;;;;10.45;60.34;100820.56;10304002;28;20081;-75
2024/02/03 15:29:20;;;;;;;0.45;0.38;;;;;;;10.45;60.47;100829.25;10342420;28;20042;-75
2024/02/03 15:34:22;;;;;;;0.75;0.50;;;;;;;10.54;60.06;100840.22;10331046;28;20535;-77
2024/02/03 15:39:25;;;;;;;0.45;0.45;;;;;;;10.37;60.61;100838.34;10323358;28;20054;-76
2024/02/03 15:44:27;;;;;;;0.50;0.50;;;;;;;10.10;61.53;100831.72;10282039;28;20061;-77
2024/02/03 15:49:42;;;;;;;2.63;0.65;;;;;;;10.11;61.55;100825.59;10332124;28;20402;-76
2024/02/03 15:54:45;;;;;;;0.65;0.65;;;;;;;10.16;61.54;100834.06;10336292;28;20376;-76
2024/02/03 15:59:48;;;;;;;0.55;0.55;;;;;;;10.08;61.62;100829.19;10282644;28;20089;-77
2024/02/03 16:04:50;;;;;;;0.35;0.35;;;;;;;10.23;61.31;100831.13;10318388;28;20089;-76
2024/02/03 16:09:52;;;;;;;0.70;0.70;;;;;;;10.10;61.94;100842.16;10333979;28;20077;-76
2024/02/03 16:14:55;;;;;;;2.17;1.02;;;;;;;10.28;61.27;100834.38;10312039;28;20069;-76
2024/02/03 16:19:57;;;;;;;3.35;1.48;;;;;;;10.11;62.00;100833.44;10314903;28;20156;-76
2024/02/03 16:25:00;;;;;;;1.17;0.85;;;;;;;9.96;62.35;100837.56;10293466;28;20089;-76
2024/02/03 16:30:03;;;;;;;0.70;0.70;;;;;;;9.87;62.93;100837.09;10322035;28;20120;-76
2024/02/03 16:35:05;;;;;;;0.80;0.70;;;;;;;9.74;63.56;100828.94;10335069;28;20113;-75
2024/02/03 16:40:08;;;;;;;1.30;1.00;;;;;;;9.82;63.19;100823.38;10305071;28;20506;-75
2024/02/03 16:45:10;;;;;;;0.80;0.68;;;;;;;9.81;63.56;100838.19;10332458;28;20396;-75
2024/02/03 16:50:12;;;;;;;1.02;0.90;;;;;;;9.71;64.39;100842.09;10297160;28;20061;-76
2024/02/03 16:55:14;;;;;;;1.35;0.90;;;;;;;9.85;63.81;100846.78;10310423;28;20495;-76
2024/02/03 17:00:17;;;;;;;0.50;0.50;;;;;;;9.85;63.90;100844.16;10319747;28;20148;-76
2024/02/03 17:05:22;;;;;;;0.63;0.45;;;;;;;9.91;64.05;100843.91;10281443;28;20050;-76
2024/02/03 17:10:25;;;;;;;0.90;0.68;;;;;;;9.93;64.04;100842.88;10310517;28;20054;-75
2024/02/03 17:15:27;;;;;;;0.57;0.55;;;;;;;9.91;64.66;100856.97;10311287;28;20050;-76
2024/02/03 17:20:29;;;;;;;0.95;0.75;;;;;;;9.74;65.76;100857.66;10322729;28;20403;-75
2024/02/03 17:25:34;;;;;;;0.65;0.65;;;;;;;9.87;64.70;100865.84;10292963;28;20058;-75
2024/02/03 17:30:37;;;;;;;0.80;0.57;;;;;;;9.90;64.95;100863.94;10346929;28;20054;-74
2024/02/03 17:35:39;;;;;;;2.00;1.02;;;;;;;9.54;67.47;100866.25;10341699;28;20054;-75
2024/02/03 17:40:41;;;;;;;1.33;0.98;;;;;;;9.79;65.59;100862.69;10345582;28;20081;-74
2024/02/03 17:45:43;;;;;;;1.73;0.93;;;;;;;9.75;65.96;100871.59;10322679;28;20054;-75
2024/02/03 17:50:46;;;;;;;1.20;0.90;;;;;;;9.74;66.51;100867.25;10322252;28;20072;-75
2024/02/03 17:55:48;;;;;;;0.88;0.68;;;;;;;9.65;66.46;100864.06;10318018;28;20388;-75
2024/02/03 18:00:50;;;;;;;0.70;0.70;;;;;;;9.55;67.47;100856.69;10313192;28;20054;-75
2024/02/03 18:05:53;;;;;;;0.88;0.80;;;;;;;9.61;66.64;100857.28;10314085;28;20061;-74
2024/02/03 18:10:55;;;;;;;0.60;0.60;;;;;;;9.46;67.61;100873.56;10312298;28;20108;-75
2024/02/03 18:15:57;;;;;;;0.75;0.70;;;;;;;9.57;67.28;100876.59;10323130;28;20043;-75
2024/02/03 18:21:00;;;;;;;1.85;0.80;;;;;;;9.60;67.21;100870.41;10314377;28;20058;-75
2024/02/03 18:26:02;;;;;;;0.90;0.80;;;;;;;9.57;67.08;100871.38;10322791;28;20435;-75
2024/02/03 18:31:05;;;;;;;0.70;0.70;;;;;;;9.49;67.24;100870.84;10308097;28;20058;-75
2024/02/03 18:36:07;;;;;;;0.60;0.60;;;;;;;9.44;67.48;100869.34;10310210;28;20053;-75
2024/02/03 18:41:09;;;;;;;1.90;0.77;;;;;;;9.47;67.48;100867.44;10308631;28;20050;-76
2024/02/03 18:46:11;;;;;;;0.60;0.60;;;;;;;9.38;67.86;100864.38;10316545;28;20042;-75
2024/02/03 18:51:14;;;;;;;1.00;0.50;;;;;;;9.29;68.13;100844.69;10299821;28;20042;-75
2024/02/03 18:56:21;;;;;;;2.30;1.10;;;;;;;9.27;68.40;100845.66;10313515;28;20050;-75
2024/02/03 19:01:23;;;;;;;0.55;0.55;;;;;;;9.29;68.56;100860.34;10335967;28;20058;-75
2024/02/03 19:06:26;;;;;;;0.68;0.60;;;;;;;9.23;69.10;100854.50;10311730;28;20054;-76
2024/02/03 19:11:28;;;;;;;0.80;0.77;;;;;;;9.24;68.92;100848.41;10317530;28;20128;-75
2024/02/03 19:16:30;;;;;;;1.38;0.80;;;;;;;9.24;69.33;100844.00;10334775;28;20057;-75
2024/02/03 19:21:33;;;;;;;1.60;0.98;;;;;;;9.38;68.48;100851.31;10315229;28;20554;-76
2024/02/03 19:26:37;;;;;;;0.60;0.52;;;;;;;9.26;68.83;100833.53;10306753;28;20165;-77
2024/02/03 19:31:40;;;;;;;2.10;1.10;;;;;;;9.14;69.87;100844.41;10306471;28;20061;-76
2024/02/03 19:36:42;;;;;;;2.38;0.85;;;;;;;9.26;68.96;100843.97;10299450;28;20497;-77
2024/02/03 19:41:44;;;;;;;1.00;0.80;;;;;;;9.32;68.65;100844.53;10303293;28;20050;-77
2024/02/03 19:46:49;;;;;;;1.33;0.93;;;;;;;9.37;68.40;100853.06;10286465;28;20069;-77
2024/02/03 19:51:52;;;;;;;0.75;0.75;;;;;;;9.36;68.37;100856.56;10319082;28;20109;-77
2024/02/03 19:56:54;;;;;;;1.38;1.15;;;;;;;9.41;68.31;100845.94;10301865;28;20408;-77
2024/02/03 20:01:56;;;;;;;0.70;0.70;;;;;;;9.38;67.91;100851.31;10294776;28;20065;-77
2024/02/03 20:06:59;;;;;;;1.25;0.90;;;;;;;9.47;67.52;100857.00;10297157;28;20058;-77
2024/02/03 20:12:03;;;;;;;1.02;0.65;;;;;;;9.48;67.48;100861.28;10296266;28;20139;-77
2024/02/03 20:17:06;;;;;;;0.60;0.60;;;;;;;9.51;66.95;100861.19;10316769;28;20065;-77
2024/02/03 20:22:11;;;;;;;1.00;0.90;;;;;;;9.61;66.45;100846.84;10308841;28;20065;-76
2024/02/03 20:27:14;;;;;;;0.80;0.65;;;;;;;9.62;66.40;100858.13;10290688;28;20061;-77
2024/02/03 20:32:16;;;;;;;0.55;0.55;;;;;;;9.71;66.00;100870.00;10317295;28;20572;-76
2024/02/03 20:37:18;;;;;;;0.55;0.55;;;;;;;9.67;66.07;100865.81;10320151;28;21048;-76
2024/02/03 20:42:21;;;;;;;2.78;1.00;;;;;;;9.69;66.05;100854.38;10303594;28;20056;-77
2024/02/03 20:47:23;;;;;;;2.50;0.80;;;;;;;9.60;65.69;100833.84;10310287;28;20089;-76
2024/02/03 20:52:27;;;;;;;0.60;0.60;;;;;;;9.68;65.51;100836.16;10303710;28;20062;-77
2024/02/03 20:57:30;;;;;;;0.47;0.47;;;;;;;9.70;65.50;100852.63;10321447;28;20057;-77
2024/02/03 21:02:32;;;;;;;0.73;0.68;;;;;;;9.76;65.18;100852.38;10337575;28;20519;-76
2024/02/03 21:07:34;;;;;;;0.57;0.30;;;;;;;9.83;65.37;100827.69;10306547;28;20585;-77
2024/02/03 21:12:39;;;;;;;0.63;0.63;;;;;;;9.85;64.98;100834.53;10298180;28;20057;-78
2024/02/03 21:17:42;;;;;;;0.40;0.40;;;;;;;9.82;64.91;100846.88;10322987;28;20069;-77
2024/02/03 21:22:46;;;;;;;0.65;0.65;;;;;;;9.74;64.97;100846.34;10278950;28;20138;-77
2024/02/03 21:27:48;;;;;;;0.60;0.50;;;;;;;9.87;64.81;100848.38;10311184;28;20038;-77
2024/02/03 21:32:51;;;;;;;1.60;0.60;;;;;;;9.82;64.88;100845.13;10294675;28;20077;-77
2024/02/03 21:37:54;;;;;;;1.95;0.50;;;;;;;9.65;65.42;100837.97;10275886;28;20156;-78
2024/02/03 21:42:57;;;;;;;0.40;0.40;;;;;;;9.78;64.71;100838.34;10285688;28;20073;-77
2024/02/03 21:48:00;;;;;;;0.30;0.25;;;;;;;9.85;64.67;100844.97;10302189;28;20046;-77
2024/02/03 21:53:03;;;;;;;1.00;0.60;;;;;;;9.91;64.61;100862.19;10295621;28;20050;-77
2024/02/03 21:58:08;;;;;;;0.68;0.60;;;;;;;9.88;64.75;100857.06;10308658;28;20046;-77
2024/02/03 22:03:10;;;;;;;1.00;0.60;;;;;;;9.86;64.83;100845.84;10296355;28;20137;-77
2024/02/03 22:08:13;;;;;;;0.40;0.40;;;;;;;9.91;64.72;100849.13;10303505;28;20463;-77
2024/02/03 22:13:15;;;;;;;0.85;0.80;;;;;;;9.76;65.21;100849.75;10282654;28;20483;-77
2024/02/03 22:18:17;;;;;;;0.65;0.60;;;;;;;9.76;65.30;100849.75;10311774;28;20054;-78
2024/02/03 22:23:20;;;;;;;0.60;0.40;;;;;;;9.55;65.96;100836.63;10311254;28;20069;-78
2024/02/03 22:28:22;;;;;;;0.30;0.30;;;;;;;9.52;65.78;100831.53;10306443;28;20058;-78
2024/02/03 22:33:24;;;;;;;0.80;0.50;;;;;;;9.30;66.98;100843.75;10287974;28;20047;-78
2024/02/03 22:38:26;;;;;;;0.35;0.30;;;;;;;9.24;66.82;100830.13;10316322;28;20112;-78
2024/02/03 22:43:28;;;;;;;0.40;0.40;;;;;;;8.96;68.41;100816.44;10305429;28;20058;-78
2024/02/03 22:48:30;;;;;;;0.55;0.50;;;;;;;9.01;67.86;100825.81;10290800;28;20069;-78
2024/02/03 22:53:33;;;;;;;0.50;0.50;;;;;;;9.15;67.32;100817.44;10286799;28;20145;-78
2024/02/03 22:58:35;;;;;;;0.55;0.55;;;;;;;9.24;67.21;100804.84;10265331;28;1157780;-78
2024/02/03 23:03:37;;;;;;;0.40;0.40;;;;;;;9.27;67.29;100804.75;10316784;28;20096;-78
2024/02/03 23:08:39;;;;;;;1.20;0.80;;;;;;;9.37;67.07;100794.78;10294563;28;20058;-78
2024/02/03 23:13:41;;;;;;;0.50;0.50;;;;;;;9.37;67.12;100793.00;10298267;28;20070;-78
2024/02/03 23:18:43;;;;;;;0.60;0.60;;;;;;;9.32;67.41;100792.34;10319236;28;20105;-76
2024/02/03 23:23:46;;;;;;;0.35;0.35;;;;;;;9.33;67.30;100793.19;10317014;28;20101;-77